Time;durP1;ratioP1;P1;durP2;ratioP2;P2;SDS_P1;SDS_P2;PMS_P1;PMS_P2;Temp;Humidity;BMP_temperature;BMP_pressure;BME280_temperature;BME280_humidity;BME280_pressure;Samples;Min_cycle;Max_cycle;Signal;HPM_P1;HPM_P2
2024/01/27 00:01:08;;;;;;;10.10;3.47;;;5.00;16.90;;;;;;5048624;28;20492;-67
2024/01/27 00:03:35;;;;;;;6.07;2.00;;;5.00;17.00;;;;;;5051838;28;20469;-68
2024/01/27 00:06:03;;;;;;;12.17;2.50;;;5.00;17.00;;;;;;5050116;28;20953;-70
2024/01/27 00:08:30;;;;;;;5.57;2.70;;;5.00;17.00;;;;;;5049722;28;20497;-67
2024/01/27 00:10:57;;;;;;;6.07;2.17;;;5.00;17.00;;;;;;5049746;28;20484;-68
2024/01/27 00:13:24;;;;;;;7.07;2.83;;;5.00;17.00;;;;;;5049785;28;20450;-68
2024/01/27 00:15:54;;;;;;;6.90;2.83;;;5.00;17.10;;;;;;5045583;28;20765;-68
2024/01/27 00:18:39;;;;;;;9.87;3.20;;;4.90;17.10;;;;;;5046545;28;20501;-68
2024/01/27 00:21:08;;;;;;;7.17;2.30;;;4.80;17.10;;;;;;5047032;28;20465;-68
2024/01/27 00:23:35;;;;;;;5.57;2.33;;;4.80;17.10;;;;;;5050158;28;21293;-69
2024/01/27 00:26:02;;;;;;;8.97;2.80;;;4.80;17.20;;;;;;5045918;28;20454;-67
2024/01/27 00:28:29;;;;;;;9.03;3.07;;;4.80;17.20;;;;;;5046655;28;20492;-67
2024/01/27 00:30:56;;;;;;;10.73;2.73;;;4.70;17.30;;;;;;5048835;28;20504;-67
2024/01/27 00:33:23;;;;;;;6.40;2.60;;;4.70;17.30;;;;;;5047721;28;20462;-67
2024/01/27 00:35:50;;;;;;;5.80;2.20;;;4.70;17.30;;;;;;5049255;28;20466;-67
2024/01/27 00:38:18;;;;;;;7.00;3.00;;;4.70;17.30;;;;;;5049955;28;20477;-68
2024/01/27 00:40:45;;;;;;;4.47;1.87;;;4.60;17.70;;;;;;5048694;28;20449;-67
2024/01/27 00:43:11;;;;;;;8.77;2.80;;;4.50;17.20;;;;;;5049413;28;20462;-67
2024/01/27 00:45:38;;;;;;;7.87;3.07;;;4.50;17.20;;;;;;5047229;28;20461;-68
2024/01/27 00:48:06;;;;;;;8.00;2.57;;;4.50;17.30;;;;;;5049674;28;20998;-68
2024/01/27 00:50:33;;;;;;;8.63;2.40;;;4.40;17.30;;;;;;5049872;28;21046;-68
2024/01/27 00:53:00;;;;;;;5.80;2.20;;;4.40;17.40;;;;;;5051154;28;20563;-68
2024/01/27 00:55:28;;;;;;;10.07;3.00;;;4.40;17.50;;;;;;5049793;28;20466;-68
2024/01/27 00:57:55;;;;;;;26.87;8.90;;;4.30;17.60;;;;;;5047305;28;20482;-67
2024/01/27 01:00:22;;;;;;;16.20;4.93;;;4.30;17.70;;;;;;5045060;28;20954;-67
2024/01/27 01:02:48;;;;;;;13.10;4.60;;;4.30;17.80;;;;;;5050859;28;20451;-68
2024/01/27 01:05:15;;;;;;;25.47;11.00;;;4.30;18.10;;;;;;5050196;28;20838;-67
2024/01/27 01:07:42;;;;;;;16.33;5.40;;;4.40;18.00;;;;;;5049792;28;20492;-68
2024/01/27 01:10:09;;;;;;;10.00;2.80;;;4.40;18.20;;;;;;5050476;28;20458;-68
2024/01/27 01:12:38;;;;;;;10.73;3.00;;;4.40;18.30;;;;;;5043556;28;20946;-67
2024/01/27 01:15:05;;;;;;;11.80;3.47;;;4.40;18.40;;;;;;5050489;28;20454;-68
2024/01/27 01:17:32;;;;;;;7.67;3.23;;;4.30;18.50;;;;;;5045934;28;20479;-67
2024/01/27 01:19:59;;;;;;;6.13;2.50;;;4.30;18.60;;;;;;5050464;28;20462;-67
2024/01/27 01:22:26;;;;;;;7.70;2.50;;;4.30;18.70;;;;;;5049585;28;20465;-68
2024/01/27 01:24:53;;;;;;;6.30;3.07;;;4.20;18.70;;;;;;5049962;28;20462;-68
2024/01/27 01:27:21;;;;;;;7.43;3.60;;;4.20;18.60;;;;;;5049254;28;20489;-68
2024/01/27 01:29:49;;;;;;;8.40;3.10;;;4.10;18.70;;;;;;5050347;28;20573;-68
2024/01/27 01:32:16;;;;;;;6.60;2.93;;;4.10;18.80;;;;;;5047920;28;20488;-68
2024/01/27 01:34:43;;;;;;;7.63;2.67;;;4.00;18.70;;;;;;5049865;28;20455;-68
2024/01/27 01:37:09;;;;;;;9.07;3.60;;;4.00;18.70;;;;;;5048670;28;20488;-68
2024/01/27 01:39:36;;;;;;;7.70;3.10;;;4.10;18.80;;;;;;5048305;28;20458;-68
2024/01/27 01:42:03;;;;;;;9.40;3.60;;;4.10;18.80;;;;;;5049814;28;20477;-68
2024/01/27 01:44:32;;;;;;;8.40;3.00;;;4.10;18.80;;;;;;5049517;28;20454;-68
2024/01/27 01:47:01;;;;;;;7.93;2.70;;;4.10;18.80;;;;;;5048624;28;20473;-67
2024/01/27 01:49:27;;;;;;;11.17;3.87;;;4.10;18.80;;;;;;5048156;28;20490;-68
2024/01/27 01:51:54;;;;;;;7.60;2.57;;;4.10;18.90;;;;;;5044660;28;20469;-68
2024/01/27 01:54:22;;;;;;;7.43;2.60;;;4.20;18.80;;;;;;5047913;28;20461;-68
2024/01/27 01:56:49;;;;;;;8.50;2.70;;;4.20;18.80;;;;;;5049871;28;20486;-68
2024/01/27 01:59:16;;;;;;;10.07;2.23;;;4.20;18.90;;;;;;5049371;28;20458;-68
2024/01/27 02:01:43;;;;;;;7.37;2.57;;;4.30;18.90;;;;;;5074443;28;20461;-68
2024/01/27 02:04:11;;;;;;;7.97;3.07;;;4.20;18.80;;;;;;5076442;28;20450;-68
2024/01/27 02:06:38;;;;;;;9.20;3.53;;;4.20;18.90;;;;;;5044625;28;20487;-68
2024/01/27 02:09:05;;;;;;;11.40;3.23;;;4.20;18.80;;;;;;5051635;28;20493;-68
2024/01/27 02:11:32;;;;;;;9.50;3.20;;;4.20;18.70;;;;;;5049732;28;20458;-67
2024/01/27 02:13:58;;;;;;;10.13;3.00;;;4.20;18.80;;;;;;5052167;28;20454;-68
2024/01/27 02:16:25;;;;;;;8.87;2.90;;;4.20;18.90;;;;;;5047769;28;20460;-70
2024/01/27 02:18:52;;;;;;;9.70;2.80;;;4.20;18.80;;;;;;5048297;28;20454;-68
2024/01/27 02:21:20;;;;;;;6.57;2.67;;;4.20;18.90;;;;;;5045114;28;20462;-68
2024/01/27 02:23:47;;;;;;;15.83;4.33;;;4.20;19.00;;;;;;5042793;28;20469;-68
2024/01/27 02:26:15;;;;;;;8.07;2.70;;;4.20;18.90;;;;;;5048785;28;20450;-68
2024/01/27 02:28:42;;;;;;;6.27;2.33;;;4.20;19.00;;;;;;5048058;28;20489;-68
2024/01/27 02:31:09;;;;;;;8.93;2.30;;;4.20;18.90;;;;;;5044811;28;20476;-67
2024/01/27 02:33:35;;;;;;;10.10;2.77;;;4.20;18.90;;;;;;5045724;28;20473;-68
2024/01/27 02:36:02;;;;;;;7.57;2.40;;;4.20;19.00;;;;;;5046005;28;20462;-68
2024/01/27 02:38:29;;;;;;;10.20;3.63;;;4.10;19.00;;;;;;5047919;28;20474;-68
2024/01/27 02:40:56;;;;;;;8.40;3.07;;;4.20;19.00;;;;;;5047961;28;20462;-68
2024/01/27 02:43:24;;;;;;;10.20;2.90;;;4.10;18.90;;;;;;5048652;28;20466;-67
2024/01/27 02:45:51;;;;;;;6.40;2.53;;;4.00;18.60;;;;;;5047930;28;20470;-68
2024/01/27 02:48:17;;;;;;;7.73;2.13;;;4.00;18.50;;;;;;5043741;28;20533;-68
2024/01/27 02:50:44;;;;;;;7.23;2.10;;;3.90;18.60;;;;;;5044309;28;20470;-68
2024/01/27 02:53:11;;;;;;;10.93;2.40;;;3.90;18.70;;;;;;5047494;28;20473;-68
2024/01/27 02:55:38;;;;;;;8.27;2.37;;;3.80;18.80;;;;;;5043503;28;20465;-68
2024/01/27 02:58:05;;;;;;;6.97;2.47;;;3.80;18.90;;;;;;5045056;28;20473;-68
2024/01/27 03:00:34;;;;;;;16.87;3.07;;;3.80;19.10;;;;;;5045239;28;20493;-68
2024/01/27 03:03:00;;;;;;;10.40;2.90;;;3.80;19.10;;;;;;5045728;28;20454;-68
2024/01/27 03:05:27;;;;;;;11.43;3.80;;;3.80;19.10;;;;;;5044213;28;20450;-68
2024/01/27 03:07:54;;;;;;;5.90;2.07;;;3.70;19.10;;;;;;5047004;28;20490;-68
2024/01/27 03:10:21;;;;;;;6.53;2.77;;;3.70;19.10;;;;;;5046732;28;20478;-68
2024/01/27 03:12:48;;;;;;;8.40;2.43;;;3.60;19.00;;;;;;5044657;28;20463;-68
2024/01/27 03:15:14;;;;;;;8.57;2.60;;;3.60;19.00;;;;;;5046302;28;20928;-68
2024/01/27 03:17:43;;;;;;;5.40;2.70;;;3.60;19.10;;;;;;5043456;28;20481;-68
2024/01/27 03:20:10;;;;;;;6.30;2.50;;;3.60;19.10;;;;;;5047301;28;20458;-69
2024/01/27 03:22:37;;;;;;;6.00;2.43;;;3.60;19.20;;;;;;5046578;28;20451;-68
2024/01/27 03:25:04;;;;;;;5.23;2.10;;;3.60;19.20;;;;;;5045400;28;20470;-68
2024/01/27 03:27:31;;;;;;;7.53;2.83;;;3.60;19.50;;;;;;5050484;28;20486;-68
2024/01/27 03:30:01;;;;;;;6.33;2.73;;;3.60;19.80;;;;;;5045038;28;20521;-68
2024/01/27 03:32:28;;;;;;;6.20;2.63;;;3.70;20.00;;;;;;5054027;28;20470;-69
2024/01/27 03:34:56;;;;;;;8.13;3.40;;;3.70;20.00;;;;;;5051640;28;20953;-68
2024/01/27 03:37:23;;;;;;;7.20;3.20;;;3.70;20.00;;;;;;5049635;28;20489;-68
2024/01/27 03:39:50;;;;;;;7.77;3.23;;;3.60;20.00;;;;;;5049162;28;20446;-68
2024/01/27 03:42:16;;;;;;;10.87;3.73;;;3.50;20.20;;;;;;5051738;28;20815;-68
2024/01/27 03:44:43;;;;;;;7.00;3.97;;;3.50;20.30;;;;;;5049438;28;20457;-68
2024/01/27 03:47:10;;;;;;;7.77;3.70;;;3.40;20.50;;;;;;5050667;28;20481;-68
2024/01/27 03:49:37;;;;;;;7.40;3.10;;;3.50;20.70;;;;;;5044700;28;20482;-68
2024/01/27 03:52:05;;;;;;;64.97;29.00;;;3.40;20.50;;;;;;5051590;28;20454;-68
2024/01/27 03:54:32;;;;;;;46.67;21.17;;;3.40;20.70;;;;;;5049187;28;20458;-68
2024/01/27 03:56:59;;;;;;;13.70;5.37;;;3.40;20.30;;;;;;5045630;28;20508;-68
2024/01/27 03:59:26;;;;;;;17.63;4.13;;;3.40;20.50;;;;;;5046691;28;20996;-68
2024/01/27 04:01:53;;;;;;;9.00;3.77;;;3.40;20.50;;;;;;5049465;28;20477;-69
2024/01/27 04:04:19;;;;;;;8.00;3.33;;;3.30;20.70;;;;;;5047485;28;20465;-69
2024/01/27 04:06:46;;;;;;;8.93;3.47;;;3.30;20.70;;;;;;5050304;28;20485;-68
2024/01/27 04:09:15;;;;;;;5.23;2.70;;;3.30;20.80;;;;;;5050071;28;20484;-68
2024/01/27 04:11:42;;;;;;;13.07;3.53;;;3.30;20.90;;;;;;5051016;28;20458;-69
2024/01/27 04:14:09;;;;;;;10.13;3.40;;;3.30;21.00;;;;;;5050662;28;20969;-69
2024/01/27 04:16:36;;;;;;;6.97;3.20;;;3.30;21.00;;;;;;5048371;28;20477;-69
2024/01/27 04:19:03;;;;;;;9.80;3.50;;;3.30;21.10;;;;;;5048638;28;20839;-68
2024/01/27 04:21:30;;;;;;;8.93;3.13;;;3.20;21.10;;;;;;5051497;28;20466;-68
2024/01/27 04:23:57;;;;;;;9.00;3.30;;;3.20;21.30;;;;;;5043860;28;20963;-68
2024/01/27 04:26:25;;;;;;;8.97;3.30;;;3.20;21.30;;;;;;5053869;28;20837;-68
2024/01/27 04:28:52;;;;;;;9.23;3.30;;;3.20;21.40;;;;;;5049447;28;20500;-69
2024/01/27 04:31:18;;;;;;;12.70;3.67;;;3.20;21.50;;;;;;5080168;22;20467;-70
2024/01/27 04:33:45;;;;;;;7.93;3.30;;;3.20;21.60;;;;;;5086772;28;20471;-70
2024/01/27 04:36:12;;;;;;;7.63;3.80;;;3.20;21.60;;;;;;5085983;28;20826;-70
2024/01/27 04:38:39;;;;;;;9.37;4.30;;;3.20;21.60;;;;;;5086702;28;20495;-71
2024/01/27 04:41:06;;;;;;;8.93;3.83;;;3.20;21.60;;;;;;5087742;28;20495;-71
2024/01/27 04:43:34;;;;;;;7.40;4.00;;;3.20;21.60;;;;;;5082701;28;20942;-71
2024/01/27 04:46:01;;;;;;;12.07;4.27;;;3.20;21.60;;;;;;5086937;28;20460;-71
2024/01/27 04:48:27;;;;;;;9.50;3.77;;;3.20;21.60;;;;;;5090955;28;20496;-71
2024/01/27 04:50:54;;;;;;;7.60;3.60;;;3.30;21.60;;;;;;5090549;28;20967;-71
2024/01/27 04:53:21;;;;;;;8.83;4.87;;;3.30;21.50;;;;;;5090026;28;20484;-71
2024/01/27 04:55:48;;;;;;;9.77;4.10;;;3.20;21.50;;;;;;5083749;28;20460;-71
2024/01/27 04:58:14;;;;;;;10.30;3.87;;;3.20;21.40;;;;;;5088675;28;21034;-71
2024/01/27 05:00:43;;;;;;;12.57;4.50;;;3.30;21.50;;;;;;5089577;28;20828;-71
2024/01/27 05:03:13;;;;;;;10.57;4.20;;;3.30;21.50;;;;;;5088544;28;20463;-71
2024/01/27 05:05:42;;;;;;;7.93;4.00;;;3.20;21.40;;;;;;5083703;28;20940;-71
2024/01/27 05:08:09;;;;;;;7.90;3.87;;;3.30;21.70;;;;;;5087601;28;20487;-71
2024/01/27 05:10:36;;;;;;;9.43;4.00;;;3.20;21.20;;;;;;5086539;28;20514;-71
2024/01/27 05:13:03;;;;;;;10.40;3.80;;;3.20;20.90;;;;;;5084877;28;21188;-71
2024/01/27 05:15:30;;;;;;;11.00;4.30;;;3.20;20.90;;;;;;5090016;28;20491;-71
2024/01/27 05:17:58;;;;;;;13.27;4.30;;;3.10;21.00;;;;;;5087921;28;21015;-71
2024/01/27 05:20:24;;;;;;;9.73;4.13;;;3.10;21.10;;;;;;5089724;28;20444;-71
2024/01/27 05:22:51;;;;;;;13.90;5.87;;;3.10;21.20;;;;;;5089307;28;20887;-71
2024/01/27 05:25:18;;;;;;;10.50;4.90;;;3.00;21.10;;;;;;5088852;28;20456;-71
2024/01/27 05:27:45;;;;;;;13.10;3.90;;;3.00;21.20;;;;;;5088481;28;20857;-71
2024/01/27 05:30:12;;;;;;;9.40;4.93;;;3.00;21.30;;;;;;5086832;28;20481;-71
2024/01/27 05:32:39;;;;;;;14.77;5.80;;;3.00;21.30;;;;;;5088840;28;20464;-71
2024/01/27 05:35:09;;;;;;;10.20;4.30;;;3.00;21.40;;;;;;5086254;28;20460;-72
2024/01/27 05:37:36;;;;;;;8.37;4.20;;;3.00;21.30;;;;;;5086174;28;20483;-71
2024/01/27 05:40:03;;;;;;;8.50;4.57;;;3.00;21.30;;;;;;5090661;28;20463;-71
2024/01/27 05:42:30;;;;;;;11.63;5.00;;;3.00;21.30;;;;;;5085158;28;20469;-71
2024/01/27 05:44:56;;;;;;;13.03;4.80;;;3.00;21.20;;;;;;5087384;28;20463;-71
2024/01/27 05:47:23;;;;;;;13.23;4.43;;;3.00;21.20;;;;;;5089593;28;20491;-71
2024/01/27 05:49:50;;;;;;;12.87;6.23;;;3.00;21.20;;;;;;5087584;28;20899;-71
2024/01/27 05:52:19;;;;;;;10.60;4.83;;;3.00;21.30;;;;;;5088374;28;20460;-71
2024/01/27 05:54:46;;;;;;;7.97;4.13;;;3.00;21.40;;;;;;5087920;28;20842;-71
2024/01/27 05:57:13;;;;;;;10.40;5.10;;;3.00;21.30;;;;;;5080054;28;20499;-71
2024/01/27 05:59:39;;;;;;;12.67;7.47;;;2.90;21.30;;;;;;5089637;28;20572;-71
2024/01/27 06:02:06;;;;;;;12.23;6.30;;;2.90;21.30;;;;;;5085263;28;20469;-71
2024/01/27 06:04:34;;;;;;;11.30;4.60;;;2.90;21.30;;;;;;5090260;28;20460;-71
2024/01/27 06:07:01;;;;;;;9.63;5.33;;;2.90;21.30;;;;;;5087599;28;20524;-71
2024/01/27 06:09:29;;;;;;;9.30;4.80;;;2.90;21.20;;;;;;5084229;28;20500;-71
2024/01/27 06:11:59;;;;;;;6.60;3.63;;;2.80;21.10;;;;;;5087933;28;20464;-73
2024/01/27 06:14:25;;;;;;;7.83;4.07;;;2.80;20.90;;;;;;5087448;28;20460;-69
2024/01/27 06:16:52;;;;;;;9.30;4.33;;;2.80;20.80;;;;;;5085724;28;20485;-71
2024/01/27 06:19:19;;;;;;;13.57;4.60;;;2.80;20.70;;;;;;5086890;28;20456;-71
2024/01/27 06:21:46;;;;;;;13.67;4.83;;;2.80;20.60;;;;;;5090236;28;20472;-71
2024/01/27 06:24:13;;;;;;;7.23;4.30;;;2.70;20.60;;;;;;5084151;28;20875;-71
2024/01/27 06:26:41;;;;;;;9.80;4.67;;;2.70;20.70;;;;;;5085822;28;20476;-71
2024/01/27 06:29:08;;;;;;;12.30;5.07;;;2.60;20.60;;;;;;5086268;28;20487;-71
2024/01/27 06:31:34;;;;;;;7.60;3.93;;;2.60;20.70;;;;;;5089072;28;20461;-71
2024/01/27 06:34:01;;;;;;;9.87;4.97;;;2.60;20.80;;;;;;5089005;28;20487;-71
2024/01/27 06:36:28;;;;;;;9.73;4.80;;;2.50;20.90;;;;;;5090792;28;20808;-71
2024/01/27 06:38:55;;;;;;;8.90;4.47;;;2.50;21.10;;;;;;5086661;28;20463;-71
2024/01/27 06:41:22;;;;;;;11.70;4.63;;;2.40;21.00;;;;;;5091909;28;20491;-69
2024/01/27 06:43:50;;;;;;;10.10;4.67;;;2.40;21.10;;;;;;5086767;28;20464;-71
2024/01/27 06:46:17;;;;;;;11.47;5.50;;;2.40;21.20;;;;;;5088481;28;20849;-71
2024/01/27 06:48:44;;;;;;;10.03;5.07;;;2.40;21.20;;;;;;5087740;28;20460;-71
2024/01/27 06:51:10;;;;;;;11.00;4.77;;;2.30;21.30;;;;;;5088888;28;20577;-71
2024/01/27 06:53:37;;;;;;;9.93;4.80;;;2.30;21.30;;;;;;5087576;28;20457;-71
2024/01/27 06:56:04;;;;;;;9.57;5.10;;;2.30;21.50;;;;;;5087762;28;20451;-71
2024/01/27 06:58:32;;;;;;;9.63;4.50;;;2.30;21.40;;;;;;5086735;28;20484;-71
2024/01/27 07:01:00;;;;;;;11.00;5.70;;;2.30;21.40;;;;;;5085485;28;20552;-71
2024/01/27 07:03:27;;;;;;;11.20;7.30;;;2.30;21.70;;;;;;5085118;28;20547;-71
2024/01/27 07:05:54;;;;;;;16.50;7.70;;;2.40;22.00;;;;;;5087861;28;20468;-71
2024/01/27 07:08:20;;;;;;;12.10;6.60;;;2.40;22.20;;;;;;5085221;28;20496;-71
2024/01/27 07:10:47;;;;;;;10.30;4.77;;;2.50;22.30;;;;;;5082234;28;20491;-71
2024/01/27 07:13:15;;;;;;;8.40;4.90;;;2.50;22.60;;;;;;5084801;28;20475;-71
2024/01/27 07:15:42;;;;;;;11.67;6.50;;;2.50;22.60;;;;;;5085835;28;20460;-71
2024/01/27 07:18:10;;;;;;;13.60;5.70;;;2.60;22.70;;;;;;5088872;28;20472;-71
2024/01/27 07:20:38;;;;;;;12.80;7.10;;;2.60;22.60;;;;;;5059309;28;21020;-71
2024/01/27 07:23:05;;;;;;;11.03;6.90;;;2.70;22.60;;;;;;5087962;28;20479;-71
2024/01/27 07:25:31;;;;;;;9.57;6.00;;;2.80;22.60;;;;;;5087219;28;20452;-71
2024/01/27 07:27:58;;;;;;;10.23;6.00;;;2.90;22.30;;;;;;5091205;28;20483;-71
2024/01/27 07:30:25;;;;;;;11.70;6.70;;;3.00;22.20;;;;;;5110935;28;20532;-71
2024/01/27 07:32:53;;;;;;;10.10;5.93;;;3.10;22.30;;;;;;5101751;28;20474;-71
2024/01/27 07:35:21;;;;;;;13.70;5.60;;;3.10;22.40;;;;;;5085774;28;20453;-71
2024/01/27 07:37:48;;;;;;;14.70;5.63;;;3.30;22.30;;;;;;5085784;28;21286;-71
2024/01/27 07:40:15;;;;;;;20.20;6.60;;;3.40;22.20;;;;;;5085887;28;20967;-71
2024/01/27 07:42:43;;;;;;;11.10;6.33;;;3.60;21.80;;;;;;5085682;28;20470;-71
2024/01/27 07:45:10;;;;;;;9.50;5.33;;;4.10;21.10;;;;;;5086274;28;20949;-71
2024/01/27 07:47:37;;;;;;;10.80;5.67;;;4.70;20.00;;;;;;5082026;28;20484;-71
2024/01/27 07:50:09;;;;;;;11.27;5.27;;;5.30;18.70;;;;;;5085998;28;20476;-71
2024/01/27 07:52:37;;;;;;;9.10;5.33;;;6.10;17.30;;;;;;5087232;28;20452;-71
2024/01/27 07:55:04;;;;;;;8.27;4.60;;;6.90;15.30;;;;;;5084366;28;21005;-71
2024/01/27 07:57:32;;;;;;;8.57;4.50;;;7.50;13.20;;;;;;5092780;28;20522;-71
2024/01/27 07:59:58;;;;;;;11.13;6.40;;;7.70;11.10;;;;;;5084668;28;20456;-69
2024/01/27 08:02:26;;;;;;;12.73;6.73;;;8.10;10.30;;;;;;5084726;28;20483;-71
2024/01/27 08:04:52;;;;;;;15.73;6.97;;;8.50;9.70;;;;;;5080855;28;20464;-72
2024/01/27 08:07:19;;;;;;;9.23;5.43;;;8.90;8.90;;;;;;5087949;28;20480;-72
2024/01/27 08:09:48;;;;;;;9.43;4.77;;;9.30;8.00;;;;;;5085412;28;20479;-71
2024/01/27 08:12:14;;;;;;;9.23;4.63;;;9.60;6.60;;;;;;5086504;28;20529;-71
2024/01/27 08:14:41;;;;;;;9.40;5.27;;;9.90;6.00;;;;;;5085971;28;20829;-71
2024/01/27 08:17:08;;;;;;;8.20;5.00;;;10.00;5.40;;;;;;5085921;28;20487;-70
2024/01/27 08:19:35;;;;;;;7.23;4.53;;;10.10;5.00;;;;;;5089600;28;20487;-70
2024/01/27 08:22:01;;;;;;;7.57;4.53;;;10.30;5.10;;;;;;5090286;28;20456;-69
2024/01/27 08:24:28;;;;;;;9.80;3.80;;;10.50;4.80;;;;;;5093734;28;20452;-71
2024/01/27 08:26:57;;;;;;;10.60;4.37;;;10.70;4.30;;;;;;5088784;28;20507;-71
2024/01/27 08:29:23;;;;;;;8.83;3.93;;;10.90;3.80;;;;;;5090425;28;20537;-71
2024/01/27 08:31:50;;;;;;;8.00;4.50;;;11.00;3.80;;;;;;5079036;28;20509;-70
2024/01/27 08:34:17;;;;;;;10.30;4.57;;;11.20;4.10;;;;;;5085915;28;20531;-71
2024/01/27 08:36:44;;;;;;;8.97;3.70;;;11.20;3.90;;;;;;5085309;28;21141;-70
2024/01/27 08:39:12;;;;;;;6.83;4.47;;;11.30;4.00;;;;;;5087058;28;20944;-70
2024/01/27 08:41:38;;;;;;;8.03;4.20;;;11.50;4.00;;;;;;5089843;28;20457;-71
2024/01/27 08:44:07;;;;;;;7.07;3.37;;;11.50;3.60;;;;;;5089469;28;21299;-71
2024/01/27 08:46:33;;;;;;;8.23;3.70;;;11.70;2.90;;;;;;5085938;28;20456;-71
2024/01/27 08:49:00;;;;;;;7.27;4.17;;;11.80;2.20;;;;;;5088051;28;20467;-70
2024/01/27 08:51:27;;;;;;;6.10;3.83;;;12.00;1.80;;;;;;5085996;28;20483;-70
2024/01/27 08:53:54;;;;;;;6.67;3.33;;;12.30;1.10;;;;;;5091209;28;20460;-71
2024/01/27 08:56:21;;;;;;;8.20;4.27;;;12.70;1.00;;;;;;5086841;28;20464;-71
2024/01/27 08:58:47;;;;;;;8.47;4.17;;;13.50;1.00;;;;;;5085005;28;20952;-71
2024/01/27 09:01:17;;;;;;;11.90;3.87;;;14.10;1.00;;;;;;5089753;28;20481;-71
2024/01/27 09:03:44;;;;;;;6.80;4.30;;;14.40;1.00;;;;;;5092781;28;20559;-71
2024/01/27 09:06:10;;;;;;;11.17;4.93;;;14.50;1.00;;;;;;5084551;28;20469;-71
2024/01/27 09:08:37;;;;;;;9.77;4.83;;;14.50;1.00;;;;;;5089521;28;20475;-71
2024/01/27 09:11:04;;;;;;;7.03;4.87;;;14.60;1.00;;;;;;5089856;28;20487;-72
2024/01/27 09:13:31;;;;;;;8.07;4.93;;;14.70;1.00;;;;;;5088016;28;20464;-72
2024/01/27 09:15:58;;;;;;;9.37;4.90;;;14.80;1.00;;;;;;5088662;28;20525;-72
2024/01/27 09:18:28;;;;;;;11.00;5.00;;;15.30;1.00;;;;;;5083264;28;20504;-71
2024/01/27 09:20:55;;;;;;;8.47;4.60;;;16.10;1.00;;;;;;5087019;28;20463;-71
2024/01/27 09:23:22;;;;;;;9.27;4.93;;;17.10;1.00;;;;;;5086396;28;20475;-72
2024/01/27 09:25:48;;;;;;;8.60;5.03;;;18.00;1.00;;;;;;5089000;28;20527;-72
2024/01/27 09:28:15;;;;;;;9.77;5.10;;;18.80;1.00;;;;;;5090094;28;20902;-72
2024/01/27 09:30:42;;;;;;;12.43;5.40;;;19.60;1.00;;;;;;5093394;28;21082;-71
2024/01/27 09:33:09;;;;;;;10.33;4.87;;;20.30;1.00;;;;;;5083698;28;20799;-71
2024/01/27 09:35:37;;;;;;;8.47;5.03;;;21.10;1.00;;;;;;5084274;28;20496;-72
2024/01/27 09:38:04;;;;;;;11.60;4.93;;;21.70;1.00;;;;;;5087483;28;20483;-72
2024/01/27 09:40:31;;;;;;;10.53;5.10;;;22.30;1.00;;;;;;5089895;28;20459;-72
2024/01/27 09:43:00;;;;;;;10.47;4.90;;;22.70;1.00;;;;;;5090418;28;20459;-71
2024/01/27 09:45:27;;;;;;;9.60;5.00;;;23.00;1.00;;;;;;5090399;28;20505;-71
2024/01/27 09:47:57;;;;;;;6.97;4.10;;;23.20;1.00;;;;;;5088837;28;20472;-72
2024/01/27 09:50:24;;;;;;;8.30;3.97;;;23.40;1.00;;;;;;5087036;28;20480;-72
2024/01/27 09:52:52;;;;;;;9.77;4.33;;;23.50;1.00;;;;;;5086548;28;20452;-72
2024/01/27 09:55:19;;;;;;;8.57;4.60;;;23.50;1.00;;;;;;5088186;28;20461;-71
2024/01/27 09:57:46;;;;;;;9.63;4.60;;;23.50;1.00;;;;;;5086769;28;20476;-71
2024/01/27 10:00:15;;;;;;;9.93;4.20;;;23.40;1.00;;;;;;5086504;28;20492;-71
2024/01/27 10:02:43;;;;;;;8.50;3.93;;;23.10;1.00;;;;;;5087078;28;20992;-71
2024/01/27 10:05:10;;;;;;;7.63;3.73;;;22.60;1.00;;;;;;5087170;28;20964;-71
2024/01/27 10:07:37;;;;;;;11.40;4.40;;;21.70;1.00;;;;;;5086754;28;20864;-71
2024/01/27 10:10:06;;;;;;;9.47;4.27;;;21.10;1.00;;;;;;5075114;28;20477;-71
2024/01/27 10:12:38;;;;;;;7.67;4.17;;;20.80;1.00;;;;;;5087132;28;20471;-71
2024/01/27 10:15:06;;;;;;;7.87;3.97;;;20.20;1.00;;;;;;5087201;28;20949;-71
2024/01/27 10:17:36;;;;;;;8.10;4.00;;;19.50;1.00;;;;;;5089912;28;20488;-71
2024/01/27 10:20:04;;;;;;;8.40;4.10;;;19.10;1.00;;;;;;5086714;28;20456;-71
2024/01/27 10:22:38;;;;;;;7.60;4.77;;;19.00;1.00;;;;;;5089451;28;20463;-71
2024/01/27 10:25:07;;;;;;;6.80;3.80;;;18.80;1.00;;;;;;5087322;28;20453;-71
2024/01/27 10:27:34;;;;;;;11.70;4.70;;;18.80;1.00;;;;;;5089045;28;20476;-71
2024/01/27 10:30:01;;;;;;;7.80;3.57;;;18.70;1.00;;;;;;5106636;28;20437;-71
2024/01/27 10:32:27;;;;;;;8.73;4.07;;;18.60;1.00;;;;;;5112962;28;20817;-71
2024/01/27 10:35:03;;;;;;;6.80;3.77;;;18.60;1.00;;;;;;5090473;28;20444;-71
2024/01/27 10:37:29;;;;;;;9.03;3.83;;;18.60;1.00;;;;;;5081617;28;20500;-71
2024/01/27 10:40:01;;;;;;;7.53;3.90;;;18.70;1.00;;;;;;5086585;28;20468;-71
2024/01/27 10:42:30;;;;;;;7.27;4.00;;;18.80;1.00;;;;;;5087389;28;20460;-71
2024/01/27 10:44:59;;;;;;;7.40;4.20;;;18.80;1.00;;;;;;5087371;28;20484;-71
2024/01/27 10:47:29;;;;;;;7.70;3.77;;;18.70;1.00;;;;;;5087547;28;20836;-71
2024/01/27 10:49:57;;;;;;;7.87;4.40;;;18.70;1.00;;;;;;5089194;28;20549;-71
2024/01/27 10:52:28;;;;;;;8.60;4.50;;;18.90;1.00;;;;;;5085800;28;20480;-71
2024/01/27 10:55:00;;;;;;;8.93;4.30;;;18.90;1.00;;;;;;5085754;28;20498;-71
2024/01/27 10:57:29;;;;;;;7.93;3.73;;;19.00;1.00;;;;;;5087173;28;20500;-71
2024/01/27 10:59:57;;;;;;;10.27;3.80;;;19.10;1.00;;;;;;5094206;22;21830;-70
2024/01/27 11:02:24;;;;;;;10.10;5.13;;;19.20;1.00;;;;;;5042573;28;20525;-70
2024/01/27 11:04:52;;;;;;;9.47;3.73;;;19.20;1.00;;;;;;5043037;28;20488;-70
2024/01/27 11:07:22;;;;;;;7.53;3.90;;;19.20;1.00;;;;;;5039730;28;20482;-70
2024/01/27 11:09:51;;;;;;;7.60;3.67;;;19.30;1.00;;;;;;5037743;28;20483;-70
2024/01/27 11:12:19;;;;;;;10.37;4.10;;;19.50;1.00;;;;;;5042474;28;20505;-70
2024/01/27 11:14:48;;;;;;;10.20;3.63;;;19.50;1.00;;;;;;5045190;28;20465;-70
2024/01/27 11:17:15;;;;;;;7.43;3.70;;;19.60;1.00;;;;;;5040984;28;20509;-69
2024/01/27 11:19:42;;;;;;;7.07;3.30;;;19.80;1.00;;;;;;5041243;28;20462;-71
2024/01/27 11:22:08;;;;;;;7.30;3.47;;;20.00;1.00;;;;;;5038220;28;20458;-69
2024/01/27 11:24:35;;;;;;;9.93;3.83;;;20.20;1.00;;;;;;5041273;28;20469;-70
2024/01/27 11:27:03;;;;;;;9.43;3.70;;;20.40;1.00;;;;;;5045584;28;20843;-70
2024/01/27 11:29:32;;;;;;;11.37;3.63;;;20.60;1.00;;;;;;5062377;28;20466;-71
2024/01/27 11:32:01;;;;;;;7.67;2.63;;;20.80;1.00;;;;;;5060950;28;20532;-70
2024/01/27 11:34:28;;;;;;;9.63;4.40;;;21.00;1.00;;;;;;5042069;28;20511;-70
2024/01/27 11:36:55;;;;;;;10.10;3.80;;;21.30;1.00;;;;;;5040056;28;20482;-70
2024/01/27 11:39:26;;;;;;;7.23;2.90;;;21.50;1.00;;;;;;5038317;28;20469;-70
2024/01/27 11:41:54;;;;;;;12.07;3.60;;;21.70;1.00;;;;;;5039440;28;20451;-70
2024/01/27 11:44:21;;;;;;;7.30;2.57;;;21.90;1.00;;;;;;5047343;28;20515;-69
2024/01/27 11:46:48;;;;;;;6.70;2.53;;;22.20;1.00;;;;;;5049475;28;21025;-70
2024/01/27 11:49:17;;;;;;;8.33;2.97;;;22.50;1.00;;;;;;5049320;28;20469;-70
2024/01/27 11:51:44;;;;;;;8.30;2.60;;;22.80;1.00;;;;;;5047655;28;20485;-70
2024/01/27 11:54:11;;;;;;;7.10;3.37;;;23.10;1.00;;;;;;5047651;28;20458;-69
2024/01/27 11:56:38;;;;;;;7.30;2.83;;;23.20;1.00;;;;;;5050727;28;20491;-69
2024/01/27 11:59:05;;;;;;;5.73;2.57;;;23.40;1.00;;;;;;5048115;28;21011;-69
2024/01/27 12:01:32;;;;;;;8.43;3.00;;;22.90;1.00;;;;;;5047294;28;20462;-70
2024/01/27 12:03:59;;;;;;;7.83;3.20;;;21.90;1.00;;;;;;5046549;28;20462;-70
2024/01/27 12:08:57;;;;;;;8.23;3.67;;;20.80;1.00;;;;;;5051261;22;20482;-69
2024/01/27 12:11:24;;;;;;;6.93;4.03;;;20.90;1.00;;;;;;5048928;28;20219;-71
2024/01/27 12:13:51;;;;;;;10.13;3.90;;;21.10;1.00;;;;;;5046513;28;20837;-71
2024/01/27 12:16:18;;;;;;;9.70;4.67;;;21.60;1.00;;;;;;5046479;28;20457;-70
2024/01/27 12:18:45;;;;;;;7.63;3.70;;;21.70;1.00;;;;;;5025828;28;20463;-71
2024/01/27 12:21:12;;;;;;;7.17;3.83;;;21.60;1.00;;;;;;5025126;28;20943;-70
2024/01/27 12:23:50;;;;;;;7.30;3.80;;;21.40;1.00;;;;;;5026281;28;20482;-70
2024/01/27 12:26:20;;;;;;;9.17;3.43;;;21.30;1.00;;;;;;5025418;28;20521;-71
2024/01/27 12:28:48;;;;;;;9.53;4.30;;;21.40;1.00;;;;;;5024618;28;20458;-70
2024/01/27 12:31:16;;;;;;;8.20;4.00;;;21.40;1.00;;;;;;5023920;28;20471;-69
2024/01/27 12:33:49;;;;;;;7.17;3.07;;;21.00;1.00;;;;;;5022409;28;20456;-70
2024/01/27 12:36:17;;;;;;;6.90;2.73;;;20.80;1.00;;;;;;5022098;28;20474;-70
2024/01/27 12:38:47;;;;;;;6.33;2.40;;;20.30;1.00;;;;;;5024939;28;20470;-69
2024/01/27 12:41:14;;;;;;;6.27;2.20;;;20.00;1.00;;;;;;5027406;28;20822;-69
2024/01/27 12:43:42;;;;;;;6.83;2.50;;;19.80;1.00;;;;;;5029478;28;20455;-70
2024/01/27 12:46:10;;;;;;;8.23;3.33;;;19.30;1.00;;;;;;5023075;28;20463;-71
2024/01/27 12:48:37;;;;;;;8.37;3.27;;;18.70;1.00;;;;;;5024078;28;20515;-69
2024/01/27 12:51:04;;;;;;;5.80;2.97;;;18.30;1.00;;;;;;5019826;28;20486;-69
2024/01/27 12:53:31;;;;;;;8.27;3.33;;;18.00;1.00;;;;;;5023929;28;20471;-70
2024/01/27 12:55:59;;;;;;;6.90;3.53;;;17.70;1.00;;;;;;5004834;28;20469;-69